Toto, Indiana
Current Conditions -  °F | °C
As of 3:35 AM on Saturday 25 Oct 2014 (Local Time) from KOXI Reporting Station
Clear Clear  
Wind Chill: 12°   Ceiling: Unl
Heat Index: 12°   Visibility: 5mi
Dew Point: 10°   Wind: 3mph
Humidity: 86%   Direction: 210°SSW
Pressure: 29.9"   Gusts: NA
Location:  41.2954°N, 86.6039°W
Report Text: KOXI 250835Z AUTO 21003KT 5SM CLR 12/10 A2990 RMK AO1 T01210099
Loading
Personal Weather Stations






























Interactive Weather Map
Tropical Storm Tracking
New forecast layout! Learn more

10-Day Weather Forecast

Advertisements
Track Severe Weather on mobile